createdAt,value
2022-12-08T00:01:34.633Z,100909.13
2022-12-08T00:04:04.351Z,100913.47
2022-12-08T00:07:02.542Z,100904.00
2022-12-08T00:09:39.037Z,100903.13
2022-12-08T00:12:18.090Z,100908.31
2022-12-08T00:14:47.616Z,100904.00
2022-12-08T00:17:17.808Z,100897.09
2022-12-08T00:19:45.675Z,100899.69
2022-12-08T00:22:14.787Z,100890.22
2022-12-08T00:24:46.412Z,100886.66
2022-12-08T00:27:16.332Z,100876.28
2022-12-08T00:29:45.701Z,100880.56
2022-12-08T00:32:14.533Z,100870.97
2022-12-08T00:34:41.781Z,100876.16
2022-12-08T00:37:08.948Z,100874.44
2022-12-08T00:39:36.235Z,100870.94
2022-12-08T00:42:12.549Z,100867.53
2022-12-08T00:44:45.882Z,100866.63
2022-12-08T00:47:14.701Z,100858.91
2022-12-08T00:49:42.330Z,100856.19
2022-12-08T00:52:10.027Z,100857.03
2022-12-08T00:54:37.479Z,100859.63
2022-12-08T00:57:04.895Z,100838.09
2022-12-08T00:59:32.075Z,100837.22
2022-12-08T01:02:00.150Z,100838.09
2022-12-08T01:04:27.390Z,100836.34
2022-12-08T01:06:54.817Z,100839.78
2022-12-08T01:09:22.121Z,100840.63
2022-12-08T01:11:49.401Z,100841.44
2022-12-08T01:14:16.696Z,100844.00
2022-12-08T01:16:44.484Z,100838.00
2022-12-08T01:19:16.214Z,100850.03
2022-12-08T01:21:45.253Z,100840.53
2022-12-08T01:24:20.626Z,100843.13
2022-12-08T01:26:50.484Z,100840.53
2022-12-08T01:29:18.244Z,100841.41
2022-12-08T01:31:45.521Z,100838.00
2022-12-08T01:34:13.177Z,100838.03
2022-12-08T01:36:42.269Z,100838.88
2022-12-08T01:39:17.205Z,100833.72
2022-12-08T01:41:47.658Z,100832.88
2022-12-08T01:44:14.699Z,100837.16
2022-12-08T01:46:45.558Z,100826.81
2022-12-08T01:49:24.565Z,100822.56
2022-12-08T01:52:21.050Z,100824.28
2022-12-08T01:55:08.641Z,100820.88
2022-12-08T01:57:48.569Z,100812.31
2022-12-08T02:00:21.582Z,100806.28
2022-12-08T02:03:12.281Z,100801.22
2022-12-08T02:05:41.910Z,100806.38
2022-12-08T02:08:13.837Z,100802.91
2022-12-08T02:10:43.332Z,100802.91
2022-12-08T02:13:17.376Z,100802.09
2022-12-08T02:16:31.945Z,100795.16
2022-12-08T02:20:02.338Z,100796.03
2022-12-08T02:22:55.380Z,100793.53
2022-12-08T02:25:49.907Z,100785.69
2022-12-08T02:29:30.417Z,100778.84
2022-12-08T02:32:50.690Z,100765.84
2022-12-08T02:35:36.478Z,100764.13
2022-12-08T02:38:29.986Z,100764.13
2022-12-08T02:41:36.756Z,100770.16
2022-12-08T02:44:39.152Z,100756.41
2022-12-08T02:47:20.362Z,100752.94
2022-12-08T02:49:48.076Z,100749.47
2022-12-08T02:52:15.107Z,100744.25
2022-12-08T02:54:53.070Z,100738.22
2022-12-08T02:57:32.536Z,100742.56
2022-12-08T03:00:18.303Z,100739.94
2022-12-08T03:03:24.211Z,100737.31
2022-12-08T03:06:40.179Z,100745.06
2022-12-08T03:09:23.282Z,100740.72
2022-12-08T03:12:07.192Z,100739.00
2022-12-08T03:14:37.659Z,100742.47
2022-12-08T03:17:06.898Z,100747.66
2022-12-08T03:19:43.800Z,100748.53
2022-12-08T03:22:13.680Z,100745.09
2022-12-08T03:24:46.180Z,100738.28
2022-12-08T03:27:20.062Z,100736.50
2022-12-08T03:29:53.324Z,100728.78
2022-12-08T03:33:08.324Z,100718.47
2022-12-08T03:35:40.728Z,100717.66
2022-12-08T03:38:13.888Z,100708.25
2022-12-08T03:40:42.415Z,100704.00
2022-12-08T03:43:10.049Z,100697.97
2022-12-08T03:45:37.378Z,100697.13
2022-12-08T03:48:04.664Z,100694.50
2022-12-08T03:50:31.910Z,100690.25
2022-12-08T03:52:59.477Z,100695.34
2022-12-08T03:55:29.220Z,100684.13
2022-12-08T03:57:56.693Z,100694.41
2022-12-08T04:00:23.969Z,100689.22
2022-12-08T04:02:51.235Z,100695.25
2022-12-08T04:05:18.481Z,100681.44
2022-12-08T04:07:45.692Z,100683.13
2022-12-08T04:10:12.925Z,100680.50
2022-12-08T04:12:40.524Z,100682.16
2022-12-08T04:15:08.975Z,100681.28
2022-12-08T04:17:36.225Z,100663.19
2022-12-08T04:20:04.214Z,100664.13
2022-12-08T04:22:31.589Z,100668.38
2022-12-08T04:24:58.854Z,100668.34
2022-12-08T04:27:26.016Z,100664.94
2022-12-08T04:29:53.219Z,100660.56
2022-12-08T04:32:20.496Z,100660.53
2022-12-08T04:34:47.716Z,100657.88
2022-12-08T04:37:15.007Z,100662.19
2022-12-08T04:39:44.509Z,100669.03
2022-12-08T04:42:11.707Z,100659.53
2022-12-08T04:44:38.902Z,100662.13
2022-12-08T04:47:06.152Z,100650.91
2022-12-08T04:49:33.611Z,100656.06
2022-12-08T04:52:00.797Z,100654.38
2022-12-08T04:54:28.283Z,100654.38
2022-12-08T04:56:55.526Z,100664.69
2022-12-08T04:59:22.731Z,100656.03
2022-12-08T05:01:49.963Z,100661.22
2022-12-08T05:04:17.315Z,100657.75
2022-12-08T05:06:44.532Z,100649.13
2022-12-08T05:09:12.203Z,100644.84
2022-12-08T05:11:48.323Z,100653.38
2022-12-08T05:14:19.415Z,100650.75
2022-12-08T05:16:47.649Z,100647.31
2022-12-08T05:19:16.286Z,100649.06
2022-12-08T05:21:44.338Z,100643.94
2022-12-08T05:24:11.916Z,100643.00
2022-12-08T05:26:39.459Z,100643.06
2022-12-08T05:29:06.622Z,100650.81
2022-12-08T05:31:33.876Z,100657.78
2022-12-08T05:34:03.328Z,100657.78
2022-12-08T05:36:30.881Z,100642.28
2022-12-08T05:38:58.865Z,100649.22
2022-12-08T05:41:26.084Z,100646.69
2022-12-08T05:43:53.606Z,100635.59
2022-12-08T05:46:20.870Z,100636.53
2022-12-08T05:48:48.652Z,100634.03
2022-12-08T05:51:24.231Z,100629.81
2022-12-08T05:53:53.636Z,100625.56
2022-12-08T05:56:22.799Z,100625.63
2022-12-08T05:58:51.093Z,100623.94
2022-12-08T06:01:31.584Z,100624.84
2022-12-08T06:04:03.192Z,100624.84
2022-12-08T06:06:31.953Z,100630.06
2022-12-08T06:08:59.507Z,100628.38
2022-12-08T06:11:31.189Z,100625.75
2022-12-08T06:13:59.774Z,100620.59
2022-12-08T06:16:28.386Z,100622.25
2022-12-08T06:18:56.997Z,100617.97
2022-12-08T06:21:25.283Z,100629.94
2022-12-08T06:23:56.427Z,100632.50
2022-12-08T06:26:24.168Z,100621.31
2022-12-08T06:28:52.589Z,100621.31
2022-12-08T06:31:27.475Z,100619.69
2022-12-08T06:33:55.742Z,100611.09
2022-12-08T06:36:26.969Z,100605.97
2022-12-08T06:38:54.666Z,100606.91
2022-12-08T06:41:22.288Z,100602.56
2022-12-08T06:43:49.464Z,100611.16
2022-12-08T06:46:19.924Z,100615.41
2022-12-08T06:48:48.116Z,100617.13
2022-12-08T06:51:23.388Z,100613.75
2022-12-08T06:53:50.750Z,100615.44
2022-12-08T06:56:20.099Z,100614.56
2022-12-08T06:58:52.328Z,100616.38
2022-12-08T07:01:20.519Z,100613.75
2022-12-08T07:03:48.006Z,100603.44
2022-12-08T07:06:22.689Z,100602.59
2022-12-08T07:08:50.372Z,100612.88
2022-12-08T07:11:22.021Z,100613.75
2022-12-08T07:13:50.622Z,100609.44
2022-12-08T07:16:18.359Z,100618.91
2022-12-08T07:18:45.652Z,100615.53
2022-12-08T07:21:17.601Z,100612.94
2022-12-08T07:23:55.957Z,100613.00
2022-12-08T07:26:25.336Z,100614.66
2022-12-08T07:28:52.866Z,100618.91
2022-12-08T07:31:25.128Z,100620.63
2022-12-08T07:33:53.559Z,100620.59
2022-12-08T07:36:21.735Z,100612.78
2022-12-08T07:38:49.886Z,100622.19
2022-12-08T07:41:23.529Z,100621.31
2022-12-08T07:43:53.547Z,100624.72
2022-12-08T07:46:25.053Z,100615.22
2022-12-08T07:48:54.676Z,100613.47
2022-12-08T07:51:22.087Z,100611.69
2022-12-08T07:53:54.257Z,100612.56
2022-12-08T07:56:23.386Z,100609.06
2022-12-08T07:58:50.960Z,100615.00
2022-12-08T08:01:27.211Z,100617.56
2022-12-08T08:04:01.405Z,100610.66
2022-12-08T08:06:29.093Z,100618.41
2022-12-08T08:08:56.333Z,100614.97
2022-12-08T08:11:23.850Z,100620.97
2022-12-08T08:13:51.748Z,100618.44
2022-12-08T08:16:21.494Z,100622.72
2022-12-08T08:18:51.351Z,100622.78
2022-12-08T08:24:08.702Z,100623.69
2022-12-08T08:26:38.157Z,100625.50
2022-12-08T08:29:05.864Z,100628.97
2022-12-08T08:31:33.085Z,100634.19
2022-12-08T08:34:04.992Z,100632.47
2022-12-08T08:36:32.807Z,100626.41
2022-12-08T08:39:00.169Z,100634.09
2022-12-08T08:41:27.334Z,100636.69
2022-12-08T08:43:55.272Z,100640.19
2022-12-08T08:46:22.689Z,100631.59
2022-12-08T08:48:49.978Z,100634.19
2022-12-08T08:51:17.195Z,100629.03
2022-12-08T08:53:44.490Z,100636.03
2022-12-08T08:56:19.360Z,100633.53
2022-12-08T08:58:53.178Z,100645.72
2022-12-08T09:01:26.905Z,100636.44
2022-12-08T09:03:58.172Z,100642.56
2022-12-08T09:06:28.121Z,100642.66
2022-12-08T09:08:55.822Z,100641.81
2022-12-08T09:11:23.769Z,100643.53
2022-12-08T09:13:54.513Z,100642.69
2022-12-08T09:16:24.615Z,100637.50
2022-12-08T09:18:51.928Z,100647.84
2022-12-08T09:21:26.489Z,100649.63
2022-12-08T09:23:58.113Z,100644.44
2022-12-08T09:26:28.697Z,100640.06
2022-12-08T09:28:57.755Z,100643.41
2022-12-08T09:31:25.964Z,100640.00
2022-12-08T09:33:53.615Z,100639.13
2022-12-08T09:36:21.418Z,100633.97
2022-12-08T09:38:50.305Z,100640.00
2022-12-08T09:41:39.297Z,100633.06
2022-12-08T09:44:46.461Z,100627.03
2022-12-08T09:48:05.894Z,100631.28
2022-12-08T09:50:40.793Z,100632.97
2022-12-08T09:53:35.915Z,100635.50
2022-12-08T09:56:19.461Z,100628.59
2022-12-08T09:59:34.482Z,100637.16
2022-12-08T10:02:20.958Z,100640.56
2022-12-08T10:04:48.381Z,100636.28
2022-12-08T10:07:47.172Z,100624.16
2022-12-08T10:10:46.980Z,100623.28
2022-12-08T10:14:10.199Z,100632.72
2022-12-08T10:16:46.119Z,100614.56
2022-12-08T10:19:23.558Z,100620.59
2022-12-08T10:21:52.777Z,100617.03
2022-12-08T10:24:34.619Z,100614.34
2022-12-08T10:27:03.137Z,100617.75
2022-12-08T10:29:30.419Z,100605.56
2022-12-08T10:32:00.448Z,100603.75
2022-12-08T10:34:27.984Z,100606.25
2022-12-08T10:37:00.605Z,100604.44
2022-12-08T10:39:46.974Z,100603.56
2022-12-08T10:42:14.178Z,100604.38
2022-12-08T10:45:02.908Z,100600.09
2022-12-08T10:47:37.116Z,100603.50
2022-12-08T10:50:45.797Z,100594.91
2022-12-08T10:53:26.506Z,100599.09
2022-12-08T10:56:02.406Z,100594.78
2022-12-08T10:58:41.051Z,100593.88
2022-12-08T11:01:39.307Z,100597.25
2022-12-08T11:04:15.535Z,100594.59
2022-12-08T11:06:44.204Z,100593.66
2022-12-08T11:09:20.480Z,100590.22
2022-12-08T11:11:54.646Z,100591.09
2022-12-08T11:15:03.833Z,100579.91
2022-12-08T11:17:41.395Z,100583.28
2022-12-08T11:20:14.563Z,100573.81
2022-12-08T11:22:46.511Z,100580.75
2022-12-08T11:25:27.034Z,100571.34
2022-12-08T11:28:00.405Z,100570.44
2022-12-08T11:30:38.822Z,100576.44
2022-12-08T11:33:22.117Z,100573.81
2022-12-08T11:36:07.253Z,100571.09
2022-12-08T11:38:41.622Z,100563.28
2022-12-08T11:41:17.016Z,100564.88
2022-12-08T11:44:05.077Z,100570.00
2022-12-08T11:47:05.273Z,100563.94
2022-12-08T11:49:40.216Z,100563.88
2022-12-08T11:52:45.836Z,100562.06
2022-12-08T11:55:41.653Z,100562.94
2022-12-08T11:58:42.164Z,100560.25
2022-12-08T12:01:26.410Z,100561.03
2022-12-08T12:04:38.486Z,100557.50
2022-12-08T12:07:59.699Z,100553.09
2022-12-08T12:11:00.889Z,100551.34
2022-12-08T12:13:36.888Z,100551.41
2022-12-08T12:16:36.028Z,100553.84
2022-12-08T12:19:15.093Z,100542.56
2022-12-08T12:21:55.029Z,100539.22
2022-12-08T12:24:36.250Z,100538.31
2022-12-08T12:27:27.907Z,100543.50
2022-12-08T12:30:02.031Z,100542.09
2022-12-08T12:33:01.643Z,100540.63
2022-12-08T12:35:47.935Z,100536.41
2022-12-08T12:38:54.380Z,100532.19
2022-12-08T12:41:41.652Z,100527.97
2022-12-08T12:44:15.007Z,100522.84
2022-12-08T12:46:53.228Z,100523.69
2022-12-08T12:49:39.301Z,100521.97
2022-12-08T12:52:21.802Z,100523.63
2022-12-08T12:54:52.121Z,100519.34
2022-12-08T12:57:19.149Z,100518.34
2022-12-08T12:59:56.121Z,100518.34
2022-12-08T13:02:34.083Z,100511.44
2022-12-08T13:05:22.979Z,100519.28
2022-12-08T13:08:27.254Z,100514.16
2022-12-08T13:11:09.831Z,100522.75
2022-12-08T13:14:04.666Z,100517.59
2022-12-08T13:16:39.502Z,100515.00
2022-12-08T13:19:16.087Z,100505.56
2022-12-08T13:21:43.813Z,100509.94
2022-12-08T13:24:12.781Z,100505.59
2022-12-08T13:27:04.107Z,100504.78
2022-12-08T13:29:37.545Z,100497.03
2022-12-08T13:36:24.151Z,100485.72
2022-12-08T13:38:58.042Z,100471.13
2022-12-08T13:41:41.714Z,100476.22
2022-12-08T13:49:32.029Z,100486.53
2022-12-08T13:53:00.026Z,100488.28
2022-12-08T13:57:34.910Z,100490.72
2022-12-08T14:00:20.956Z,100486.34
2022-12-08T14:02:57.513Z,100481.22
2022-12-08T14:05:48.043Z,100479.56
2022-12-08T14:11:42.830Z,100479.56
2022-12-08T14:15:01.190Z,100472.63
2022-12-08T14:17:23.093Z,100482.94
2022-12-08T14:20:02.558Z,100491.66
2022-12-08T14:22:36.621Z,100490.88
2022-12-08T14:25:07.265Z,100487.41
2022-12-08T14:27:38.060Z,100486.56
2022-12-08T14:30:14.248Z,100481.47
2022-12-08T14:32:58.901Z,100487.53
2022-12-08T14:35:38.918Z,100478.19
2022-12-08T14:38:16.832Z,100479.09
2022-12-08T14:41:07.957Z,100480.84
2022-12-08T14:43:36.014Z,100476.59
2022-12-08T14:46:20.678Z,100470.72
2022-12-08T14:48:48.100Z,100480.28
2022-12-08T14:51:21.363Z,100491.63
2022-12-08T14:54:05.912Z,100480.47
2022-12-08T14:56:55.775Z,100484.03
2022-12-08T14:59:38.519Z,100486.72
2022-12-08T15:02:19.421Z,100486.81
2022-12-08T15:05:10.584Z,100493.81
2022-12-08T15:07:53.992Z,100481.69
2022-12-08T15:10:31.937Z,100471.28
2022-12-08T15:13:22.914Z,100480.75
2022-12-08T15:15:58.222Z,100484.97
2022-12-08T15:19:28.333Z,100491.03
2022-12-08T15:22:18.496Z,100490.16
2022-12-08T15:24:45.691Z,100498.81
2022-12-08T15:27:23.392Z,100508.34
2022-12-08T15:29:51.866Z,100510.13
2022-12-08T15:32:24.094Z,100505.03
2022-12-08T15:34:51.401Z,100508.53
2022-12-08T15:37:26.329Z,100507.81
2022-12-08T15:39:53.876Z,100509.66
2022-12-08T15:42:21.055Z,100514.94
2022-12-08T15:44:48.613Z,100510.75
2022-12-08T15:47:25.776Z,100514.28
2022-12-08T15:49:53.238Z,100508.34
2022-12-08T15:52:24.989Z,100503.34
2022-12-08T15:54:52.218Z,100507.81
2022-12-08T15:58:10.907Z,100503.59
2022-12-08T16:09:39.033Z,100512.16
2022-12-08T16:13:40.420Z,100506.13
2022-12-08T16:18:24.024Z,100499.44
2022-12-08T16:21:09.586Z,100498.72
2022-12-08T16:23:44.191Z,100497.94
2022-12-08T16:27:22.014Z,100494.59
2022-12-08T16:29:21.449Z,100486.97
2022-12-08T16:31:49.899Z,100482.78
2022-12-08T16:34:17.570Z,100485.34
2022-12-08T16:36:44.698Z,100481.09
2022-12-08T16:39:14.602Z,100479.38
2022-12-08T16:42:00.908Z,100491.47
2022-12-08T16:44:28.496Z,100486.22
2022-12-08T16:46:55.725Z,100491.34
2022-12-08T16:49:25.008Z,100491.31
2022-12-08T16:51:52.668Z,100489.56
2022-12-08T16:54:19.966Z,100489.53
2022-12-08T16:56:47.588Z,100491.19
2022-12-08T16:59:14.763Z,100486.88
2022-12-08T17:01:42.010Z,100487.75
2022-12-08T17:06:58.167Z,100485.13
2022-12-08T17:09:26.823Z,100486.88
2022-12-08T17:11:57.609Z,100484.34
2022-12-08T17:14:27.526Z,100486.03
2022-12-08T17:16:54.788Z,100487.72
2022-12-08T17:19:22.523Z,100493.66
2022-12-08T17:21:49.866Z,100490.94
2022-12-08T17:24:21.759Z,100482.25
2022-12-08T17:26:49.768Z,100485.66
2022-12-08T17:29:18.764Z,100486.53
2022-12-08T17:31:46.402Z,100478.88
2022-12-08T17:34:13.932Z,100483.19
2022-12-08T17:36:41.382Z,100482.38
2022-12-08T17:39:14.875Z,100478.09
2022-12-08T17:41:45.649Z,100476.41
2022-12-08T17:44:17.942Z,100479.03
2022-12-08T17:46:52.473Z,100480.78
2022-12-08T17:49:29.613Z,100479.94
2022-12-08T17:52:01.465Z,100482.59
2022-12-08T17:54:30.005Z,100474.03
2022-12-08T17:56:58.681Z,100473.25
2022-12-08T17:59:28.576Z,100479.25
2022-12-08T18:01:58.686Z,100477.50
2022-12-08T18:04:29.010Z,100478.34
2022-12-08T18:06:59.315Z,100488.63
2022-12-08T18:09:26.906Z,100485.22
2022-12-08T18:11:54.667Z,100479.09
2022-12-08T18:14:25.691Z,100476.59
2022-12-08T18:16:53.390Z,100476.69
2022-12-08T18:19:24.425Z,100475.09
2022-12-08T18:21:51.659Z,100476.00
2022-12-08T18:24:23.509Z,100475.34
2022-12-08T18:26:56.247Z,100474.47
2022-12-08T18:29:24.597Z,100470.28
2022-12-08T18:31:52.309Z,100474.59
2022-12-08T18:34:20.514Z,100476.41
2022-12-08T18:36:48.605Z,100472.19
2022-12-08T18:39:30.503Z,100468.81
2022-12-08T18:42:02.244Z,100473.19
2022-12-08T18:44:29.761Z,100480.00
2022-12-08T18:46:56.958Z,100479.13
2022-12-08T18:49:24.190Z,100473.97
2022-12-08T18:51:51.447Z,100471.34
2022-12-08T18:54:22.019Z,100468.75
2022-12-08T18:56:51.723Z,100469.59
2022-12-08T18:59:22.843Z,100478.25
2022-12-08T19:01:50.170Z,100474.84
2022-12-08T19:04:28.266Z,100470.63
2022-12-08T19:06:57.049Z,100468.97
2022-12-08T19:09:26.827Z,100463.91
2022-12-08T19:11:55.252Z,100464.88
2022-12-08T19:14:27.758Z,100465.81
2022-12-08T19:16:57.735Z,100467.63
2022-12-08T19:19:27.323Z,100457.38
2022-12-08T19:21:55.688Z,100464.28
2022-12-08T19:24:24.635Z,100458.38
2022-12-08T19:26:52.661Z,100458.44
2022-12-08T19:29:20.367Z,100467.06
2022-12-08T19:31:47.726Z,100461.97
2022-12-08T19:34:15.515Z,100462.91
2022-12-08T19:36:44.096Z,100458.66
2022-12-08T19:39:40.183Z,100455.28
2022-12-08T19:42:38.800Z,100457.00
2022-12-08T19:45:27.682Z,100463.06
2022-12-08T19:47:55.179Z,100460.47
2022-12-08T19:50:37.597Z,100459.59
2022-12-08T19:53:15.410Z,100463.09
2022-12-08T19:55:44.322Z,100463.97
2022-12-08T19:58:12.075Z,100459.69
2022-12-08T20:00:41.955Z,100464.88
2022-12-08T20:03:14.075Z,100458.06
2022-12-08T20:05:43.071Z,100460.66
2022-12-08T20:08:11.359Z,100462.38
2022-12-08T20:10:44.332Z,100456.41
2022-12-08T20:13:31.224Z,100467.56
2022-12-08T20:15:58.924Z,100464.94
2022-12-08T20:18:26.255Z,100462.38
2022-12-08T20:20:53.846Z,100470.13
2022-12-08T20:23:21.768Z,100458.13
2022-12-08T20:25:48.987Z,100463.31
2022-12-08T20:28:16.312Z,100473.66
2022-12-08T20:30:46.874Z,100477.13
2022-12-08T20:33:16.902Z,100472.88
2022-12-08T20:35:45.581Z,100478.03
2022-12-08T20:38:13.243Z,100477.22
2022-12-08T20:40:44.428Z,100479.81
2022-12-08T20:43:11.739Z,100472.91
2022-12-08T20:45:39.017Z,100476.38
2022-12-08T20:48:06.745Z,100474.72
2022-12-08T20:50:34.154Z,100471.38
2022-12-08T20:53:01.804Z,100462.03
2022-12-08T20:55:29.337Z,100472.44
2022-12-08T20:57:56.744Z,100476.81
2022-12-08T21:00:26.070Z,100482.00
2022-12-08T21:02:56.816Z,100480.25
2022-12-08T21:05:25.426Z,100475.09
2022-12-08T21:07:53.102Z,100481.94
2022-12-08T21:10:20.700Z,100481.00
2022-12-08T21:12:48.292Z,100480.91
2022-12-08T21:15:15.544Z,100479.16
2022-12-08T21:17:42.762Z,100476.47
2022-12-08T21:20:11.558Z,100478.97
2022-12-08T21:22:40.315Z,100487.50
2022-12-08T21:25:09.535Z,100471.13
2022-12-08T21:27:39.028Z,100475.34
2022-12-08T21:30:08.443Z,100475.28
2022-12-08T21:32:39.092Z,100467.56
2022-12-08T21:35:07.658Z,100471.03
2022-12-08T21:37:35.215Z,100471.94
2022-12-08T21:40:03.061Z,100477.94
2022-12-08T21:42:45.699Z,100474.56
2022-12-08T21:45:19.193Z,100479.69
2022-12-08T21:47:48.371Z,100480.47
2022-12-08T21:50:16.477Z,100483.81
2022-12-08T21:52:48.363Z,100481.94
2022-12-08T21:55:19.162Z,100487.88
2022-12-08T21:57:46.673Z,100487.81
2022-12-08T22:00:16.984Z,100490.31
2022-12-08T22:02:45.896Z,100489.34
2022-12-08T22:05:13.438Z,100498.75
2022-12-08T22:07:42.422Z,100502.94
2022-12-08T22:10:11.700Z,100492.53
2022-12-08T22:12:39.671Z,100487.34
2022-12-08T22:15:09.774Z,100490.72
2022-12-08T22:17:44.008Z,100496.69
2022-12-08T22:20:15.134Z,100494.91
2022-12-08T22:22:43.105Z,100489.72
2022-12-08T22:25:12.067Z,100488.91
2022-12-08T22:27:41.179Z,100489.69
2022-12-08T22:30:10.682Z,100489.66
2022-12-08T22:32:38.816Z,100489.59
2022-12-08T22:35:06.624Z,100492.16
2022-12-08T22:37:34.194Z,100483.53
2022-12-08T22:40:01.401Z,100476.63
2022-12-08T22:42:29.497Z,100476.59
2022-12-08T22:44:56.706Z,100478.28
2022-12-08T22:47:24.009Z,100464.50
2022-12-08T22:49:51.539Z,100476.50
2022-12-08T22:52:18.667Z,100473.94
2022-12-08T22:54:45.908Z,100473.09
2022-12-08T22:57:13.215Z,100473.06
2022-12-08T22:59:41.012Z,100473.91
2022-12-08T23:02:09.635Z,100480.81
2022-12-08T23:04:37.894Z,100469.59
2022-12-08T23:07:05.986Z,100472.19
2022-12-08T23:09:33.320Z,100466.16
2022-12-08T23:12:00.522Z,100471.25
2022-12-08T23:14:27.852Z,100469.44
2022-12-08T23:16:55.270Z,100465.09
2022-12-08T23:19:22.632Z,100469.34
2022-12-08T23:21:49.953Z,100467.59
2022-12-08T23:24:17.418Z,100472.78
2022-12-08T23:26:45.193Z,100468.50
2022-12-08T23:29:12.868Z,100475.41
2022-12-08T23:31:40.261Z,100467.72
2022-12-08T23:34:08.043Z,100465.22
2022-12-08T23:36:35.756Z,100461.75
2022-12-08T23:39:04.235Z,100466.00
2022-12-08T23:41:32.754Z,100466.84
2022-12-08T23:44:00.080Z,100466.84
2022-12-08T23:46:27.441Z,100459.06
2022-12-08T23:48:54.918Z,100468.53
2022-12-08T23:51:22.543Z,100465.88
2022-12-08T23:53:50.077Z,100461.56
2022-12-08T23:56:19.912Z,100454.66
2022-12-08T23:58:49.300Z,100458.13
